Time;durP1;ratioP1;P1;durP2;ratioP2;P2;SDS_P1;SDS_P2;PMS_P1;PMS_P2;Temp;Humidity;BMP_temperature;BMP_pressure;BME280_temperature;BME280_humidity;BME280_pressure;Samples;Min_cycle;Max_cycle;Signal;HPM_P1;HPM_P2
2022/06/25 00:01:28;;;;;;;10.83;2.20;;;;;;;;;;5075306;28;20230;-74
2022/06/25 00:03:55;;;;;;;11.10;2.30;;;;;;;;;;5072885;28;20282;-74
2022/06/25 00:06:23;;;;;;;9.77;1.97;;;;;;;;;;5064129;28;20199;-74
2022/06/25 00:08:52;;;;;;;13.20;2.17;;;;;;;;;;5066895;28;20219;-74
2022/06/25 00:14:06;;;;;;;7.77;1.90;;;;;;;;;;5055498;28;20203;-74
2022/06/25 00:16:34;;;;;;;9.30;2.37;;;;;;;;;;5065333;28;20213;-74
2022/06/25 00:19:01;;;;;;;11.97;1.93;;;;;;;;;;5075765;28;20287;-74
2022/06/25 00:21:28;;;;;;;9.13;2.23;;;;;;;;;;5093894;28;20710;-74
2022/06/25 00:23:57;;;;;;;10.23;2.10;;;;;;;;;;5068139;28;20738;-74
2022/06/25 00:26:24;;;;;;;12.23;2.20;;;;;;;;;;5094651;28;20217;-74
2022/06/25 00:28:51;;;;;;;8.50;2.50;;;;;;;;;;5077012;28;20259;-74
2022/06/25 00:31:18;;;;;;;8.70;2.27;;;;;;;;;;5067498;28;20295;-74
2022/06/25 00:33:46;;;;;;;8.47;1.93;;;;;;;;;;5069480;28;20764;-74
2022/06/25 00:36:13;;;;;;;8.07;2.43;;;;;;;;;;5090730;28;20647;-74
2022/06/25 00:38:40;;;;;;;9.07;2.03;;;;;;;;;;5074159;28;20731;-74
2022/06/25 00:41:08;;;;;;;13.77;2.77;;;;;;;;;;5074255;28;20231;-74
2022/06/25 00:43:38;;;;;;;9.97;2.97;;;;;;;;;;5068734;28;20196;-74
2022/06/25 00:46:06;;;;;;;13.60;2.67;;;;;;;;;;5053960;28;20296;-74
2022/06/25 00:48:33;;;;;;;11.17;2.60;;;;;;;;;;5062998;28;20310;-74
2022/06/25 00:51:00;;;;;;;11.37;2.67;;;;;;;;;;5083543;28;20253;-74
2022/06/25 00:53:30;;;;;;;8.63;2.03;;;;;;;;;;5093983;28;20290;-74
2022/06/25 00:55:58;;;;;;;8.50;2.30;;;;;;;;;;5091583;28;20206;-74
2022/06/25 00:58:28;;;;;;;9.47;2.33;;;;;;;;;;5064053;28;20624;-74
2022/06/25 01:00:55;;;;;;;9.07;1.80;;;;;;;;;;5073761;28;20287;-75
2022/06/25 01:03:25;;;;;;;8.83;2.17;;;;;;;;;;5069912;28;20283;-74
2022/06/25 01:05:52;;;;;;;12.03;2.73;;;;;;;;;;5053803;28;20206;-74
2022/06/25 01:08:21;;;;;;;12.60;2.00;;;;;;;;;;5065767;28;20223;-74
2022/06/25 01:10:48;;;;;;;9.77;2.40;;;;;;;;;;5078774;28;20278;-74
2022/06/25 01:13:16;;;;;;;10.00;2.37;;;;;;;;;;5060736;28;20290;-74
2022/06/25 01:15:45;;;;;;;11.27;1.93;;;;;;;;;;5073397;28;20206;-74
2022/06/25 01:18:12;;;;;;;8.97;2.17;;;;;;;;;;5073259;28;20298;-74
2022/06/25 01:20:39;;;;;;;11.50;2.10;;;;;;;;;;5066808;28;20231;-74
2022/06/25 01:23:08;;;;;;;7.73;2.20;;;;;;;;;;5054766;28;20634;-74
2022/06/25 01:25:36;;;;;;;14.80;2.67;;;;;;;;;;5061355;28;20285;-74
2022/06/25 01:28:03;;;;;;;10.10;2.00;;;;;;;;;;5072994;28;20269;-74
2022/06/25 01:30:30;;;;;;;11.37;2.10;;;;;;;;;;5073199;28;20282;-74
2022/06/25 01:32:58;;;;;;;9.23;2.20;;;;;;;;;;5093454;28;20289;-74
2022/06/25 01:35:25;;;;;;;11.00;1.97;;;;;;;;;;5092838;28;20285;-74
2022/06/25 01:37:52;;;;;;;8.60;2.00;;;;;;;;;;5093428;28;20284;-74
2022/06/25 01:40:21;;;;;;;9.87;1.97;;;;;;;;;;5093138;28;20248;-74
2022/06/25 01:43:00;;;;;;;11.53;2.17;;;;;;;;;;5093456;28;20285;-74
2022/06/25 01:45:28;;;;;;;5.80;1.60;;;;;;;;;;5093285;28;20281;-74
2022/06/25 01:47:55;;;;;;;7.27;1.63;;;;;;;;;;5093020;28;20222;-74
2022/06/25 01:50:22;;;;;;;12.27;1.90;;;;;;;;;;5086464;28;20310;-74
2022/06/25 01:52:50;;;;;;;6.87;1.60;;;;;;;;;;5072276;28;20287;-74
2022/06/25 01:55:18;;;;;;;9.60;2.17;;;;;;;;;;5072856;28;20286;-74
2022/06/25 01:57:47;;;;;;;9.87;2.00;;;;;;;;;;5076255;28;20575;-74
2022/06/25 02:00:15;;;;;;;9.83;1.83;;;;;;;;;;5079094;28;20238;-74
2022/06/25 02:02:43;;;;;;;9.10;1.87;;;;;;;;;;5068283;28;20231;-74
2022/06/25 02:05:10;;;;;;;13.33;2.20;;;;;;;;;;5092582;28;20281;-74
2022/06/25 02:07:37;;;;;;;9.80;1.90;;;;;;;;;;5066943;28;20261;-74
2022/06/25 02:10:05;;;;;;;10.83;2.00;;;;;;;;;;5071747;28;20199;-74
2022/06/25 02:12:32;;;;;;;7.13;2.10;;;;;;;;;;5072388;28;20245;-74
2022/06/25 02:15:01;;;;;;;8.30;2.10;;;;;;;;;;5069456;28;20412;-75
2022/06/25 02:17:28;;;;;;;7.17;2.20;;;;;;;;;;5069178;28;20668;-74
2022/06/25 02:19:56;;;;;;;10.97;2.50;;;;;;;;;;5067717;28;20289;-74
2022/06/25 02:22:23;;;;;;;12.57;1.80;;;;;;;;;;5078069;28;20203;-74
2022/06/25 02:24:52;;;;;;;11.10;2.57;;;;;;;;;;5071954;28;21036;-74
2022/06/25 02:27:19;;;;;;;8.10;1.73;;;;;;;;;;5072418;28;20199;-74
2022/06/25 02:29:46;;;;;;;9.13;1.93;;;;;;;;;;5071469;28;20675;-74
2022/06/25 02:32:15;;;;;;;10.43;2.10;;;;;;;;;;5071983;28;20753;-74
2022/06/25 02:34:42;;;;;;;10.30;2.30;;;;;;;;;;5071208;28;20198;-74
2022/06/25 02:37:09;;;;;;;12.33;2.37;;;;;;;;;;5072236;28;20282;-74
2022/06/25 02:39:36;;;;;;;10.53;2.03;;;;;;;;;;5071751;28;20287;-74
2022/06/25 02:42:03;;;;;;;12.97;2.00;;;;;;;;;;5071718;28;20199;-74
2022/06/25 02:44:30;;;;;;;13.67;2.20;;;;;;;;;;5072059;28;20294;-74
2022/06/25 02:46:58;;;;;;;14.03;3.20;;;;;;;;;;5072050;28;20294;-74
2022/06/25 02:49:26;;;;;;;8.27;2.07;;;;;;;;;;5064997;28;20310;-74
2022/06/25 02:51:53;;;;;;;10.40;2.27;;;;;;;;;;5067744;28;20333;-74
2022/06/25 02:54:21;;;;;;;12.13;2.70;;;;;;;;;;5057506;28;20242;-74
2022/06/25 02:59:33;;;;;;;7.70;2.10;;;;;;;;;;5057034;28;20197;-74
2022/06/25 03:02:00;;;;;;;7.20;1.87;;;;;;;;;;5070730;28;20222;-74
2022/06/25 03:04:28;;;;;;;9.23;1.70;;;;;;;;;;5059397;28;20338;-74
2022/06/25 03:06:56;;;;;;;10.67;2.13;;;;;;;;;;5064724;28;20238;-74
2022/06/25 03:09:24;;;;;;;12.53;2.67;;;;;;;;;;5070543;28;20674;-74
2022/06/25 03:11:51;;;;;;;10.93;1.83;;;;;;;;;;5061548;28;20213;-74
2022/06/25 03:14:18;;;;;;;8.07;2.00;;;;;;;;;;5071620;28;20591;-74
2022/06/25 03:16:46;;;;;;;8.77;2.07;;;;;;;;;;5060799;28;20330;-74
2022/06/25 03:19:13;;;;;;;6.30;1.93;;;;;;;;;;5068099;28;20238;-75
2022/06/25 03:21:41;;;;;;;9.30;2.50;;;;;;;;;;5071795;28;20282;-74
2022/06/25 03:24:08;;;;;;;12.33;2.90;;;;;;;;;;5069895;28;20281;-74
2022/06/25 03:26:36;;;;;;;10.97;2.33;;;;;;;;;;5055394;28;20291;-74
2022/06/25 03:29:03;;;;;;;11.47;2.30;;;;;;;;;;5066777;28;20242;-74
2022/06/25 03:31:30;;;;;;;10.97;2.70;;;;;;;;;;5071003;28;20199;-74
2022/06/25 03:33:57;;;;;;;10.10;2.37;;;;;;;;;;5071377;28;20226;-74
2022/06/25 03:36:25;;;;;;;8.30;2.10;;;;;;;;;;5071443;28;20286;-74
2022/06/25 03:38:53;;;;;;;13.47;2.30;;;;;;;;;;5071287;28;20294;-74
2022/06/25 03:41:38;;;;;;;12.40;2.30;;;;;;;;;;5071446;28;20227;-74
2022/06/25 03:44:06;;;;;;;9.20;2.10;;;;;;;;;;5070937;28;20245;-74
2022/06/25 03:46:34;;;;;;;9.90;2.17;;;;;;;;;;5073372;28;20238;-74
2022/06/25 03:49:01;;;;;;;9.20;2.40;;;;;;;;;;5071378;28;20306;-74
2022/06/25 03:51:29;;;;;;;12.53;2.70;;;;;;;;;;5081097;28;20424;-74
2022/06/25 03:53:57;;;;;;;11.53;2.20;;;;;;;;;;5081063;28;20199;-74
2022/06/25 03:56:25;;;;;;;12.77;2.13;;;;;;;;;;5077469;28;20252;-74
2022/06/25 03:58:53;;;;;;;13.47;2.53;;;;;;;;;;5066640;28;20666;-74
2022/06/25 04:01:23;;;;;;;11.00;2.47;;;;;;;;;;5074464;28;20256;-74
2022/06/25 04:03:50;;;;;;;8.40;2.13;;;;;;;;;;5063051;28;20204;-74
2022/06/25 04:06:17;;;;;;;10.10;3.20;;;;;;;;;;5054673;28;20291;-74
2022/06/25 04:08:44;;;;;;;12.30;3.23;;;;;;;;;;5055477;28;20267;-74
2022/06/25 04:11:13;;;;;;;13.53;3.10;;;;;;;;;;5075031;28;20290;-74
2022/06/25 04:13:40;;;;;;;7.87;2.50;;;;;;;;;;5073457;28;20273;-74
2022/06/25 04:16:07;;;;;;;12.53;2.90;;;;;;;;;;5059943;28;20404;-74
2022/06/25 04:18:35;;;;;;;14.23;2.80;;;;;;;;;;5073915;28;20206;-75
2022/06/25 04:21:02;;;;;;;12.00;2.30;;;;;;;;;;5074659;28;20293;-74
2022/06/25 04:23:29;;;;;;;11.87;2.67;;;;;;;;;;5075902;28;20289;-74
2022/06/25 04:25:56;;;;;;;12.83;2.43;;;;;;;;;;5087402;28;20204;-74
2022/06/25 04:31:10;;;;;;;12.53;2.53;;;;;;;;;;5074218;28;20333;-74
2022/06/25 04:33:37;;;;;;;14.10;2.97;;;;;;;;;;5064490;28;20228;-75
2022/06/25 04:36:05;;;;;;;12.60;2.40;;;;;;;;;;5055388;28;20286;-74
2022/06/25 04:38:32;;;;;;;11.63;2.77;;;;;;;;;;5074564;28;20231;-74
2022/06/25 04:40:59;;;;;;;8.73;2.23;;;;;;;;;;5075013;28;20273;-74
2022/06/25 04:43:27;;;;;;;13.57;2.67;;;;;;;;;;5094625;28;20233;-74
2022/06/25 04:45:55;;;;;;;10.07;2.93;;;;;;;;;;5094105;28;20285;-74
2022/06/25 04:48:22;;;;;;;19.00;3.27;;;;;;;;;;5094378;28;20658;-74
2022/06/25 04:50:49;;;;;;;15.63;2.57;;;;;;;;;;5063462;28;20774;-74
2022/06/25 04:53:16;;;;;;;12.80;3.40;;;;;;;;;;5080890;28;20257;-74
2022/06/25 04:55:43;;;;;;;11.17;2.43;;;;;;;;;;5068581;28;20290;-74
2022/06/25 04:58:11;;;;;;;10.27;3.07;;;;;;;;;;5053421;28;20235;-74
2022/06/25 05:00:40;;;;;;;15.17;3.20;;;;;;;;;;5053893;28;20302;-74
2022/06/25 05:03:07;;;;;;;17.63;3.40;;;;;;;;;;5053626;28;20222;-74
2022/06/25 05:05:35;;;;;;;13.63;3.40;;;;;;;;;;5065625;28;20237;-74
2022/06/25 05:08:02;;;;;;;14.20;3.40;;;;;;;;;;5063538;28;20253;-74
2022/06/25 05:10:29;;;;;;;10.57;2.73;;;;;;;;;;5065897;28;20258;-74
2022/06/25 05:13:14;;;;;;;12.47;2.90;;;;;;;;;;5073734;28;20286;-74
2022/06/25 05:15:43;;;;;;;13.93;3.17;;;;;;;;;;5073505;28;20674;-74
2022/06/25 05:18:11;;;;;;;12.80;3.03;;;;;;;;;;5064282;28;20200;-74
2022/06/25 05:20:39;;;;;;;10.23;2.70;;;;;;;;;;5053302;28;20307;-74
2022/06/25 05:23:06;;;;;;;13.40;3.43;;;;;;;;;;5053494;28;20195;-74
2022/06/25 05:25:33;;;;;;;15.27;2.87;;;;;;;;;;5053747;28;20290;-74
2022/06/25 05:28:00;;;;;;;13.83;3.03;;;;;;;;;;5053287;28;20204;-74
2022/06/25 05:30:28;;;;;;;14.00;3.33;;;;;;;;;;5052964;28;20694;-74
2022/06/25 05:32:56;;;;;;;13.60;2.93;;;;;;;;;;5053350;28;20235;-74
2022/06/25 05:35:24;;;;;;;12.93;3.53;;;;;;;;;;5053191;28;20635;-74
2022/06/25 05:37:51;;;;;;;15.97;3.93;;;;;;;;;;5067513;28;20238;-74
2022/06/25 05:40:18;;;;;;;13.13;2.73;;;;;;;;;;5072814;28;20195;-74
2022/06/25 05:42:46;;;;;;;13.00;2.93;;;;;;;;;;5055257;28;20231;-74
2022/06/25 05:45:13;;;;;;;10.30;2.63;;;;;;;;;;5061446;28;20801;-75
2022/06/25 05:47:41;;;;;;;12.20;2.83;;;;;;;;;;5073347;28;20660;-74
2022/06/25 05:50:10;;;;;;;15.53;3.27;;;;;;;;;;5072136;28;20610;-74
2022/06/25 05:52:37;;;;;;;16.33;3.17;;;;;;;;;;5072300;28;20199;-74
2022/06/25 05:55:05;;;;;;;12.93;3.03;;;;;;;;;;5059578;28;20199;-74
2022/06/25 05:57:32;;;;;;;9.93;2.93;;;;;;;;;;5065892;28;20206;-74
2022/06/25 05:59:59;;;;;;;14.87;3.90;;;;;;;;;;5063405;28;20278;-74
2022/06/25 06:02:27;;;;;;;14.77;2.97;;;;;;;;;;5060886;28;20233;-74
2022/06/25 06:04:54;;;;;;;14.67;3.10;;;;;;;;;;5072141;28;20226;-74
2022/06/25 06:07:23;;;;;;;13.30;3.30;;;;;;;;;;5080725;28;20199;-74
2022/06/25 06:09:50;;;;;;;14.63;3.30;;;;;;;;;;5063313;28;20277;-74
2022/06/25 06:12:18;;;;;;;13.77;3.27;;;;;;;;;;5075403;28;20657;-74
2022/06/25 06:14:45;;;;;;;16.90;3.50;;;;;;;;;;5073067;28;20257;-74
2022/06/25 06:17:12;;;;;;;17.77;3.90;;;;;;;;;;5072077;28;20729;-74
2022/06/25 06:19:39;;;;;;;11.97;3.20;;;;;;;;;;5072328;28;20832;-74
2022/06/25 06:22:06;;;;;;;22.20;4.00;;;;;;;;;;5072139;28;20667;-74
2022/06/25 06:24:35;;;;;;;17.67;4.30;;;;;;;;;;5072428;28;20231;-74
2022/06/25 06:27:02;;;;;;;11.83;3.57;;;;;;;;;;5066653;28;20235;-74
2022/06/25 06:29:30;;;;;;;12.60;3.20;;;;;;;;;;5090524;28;20612;-74
2022/06/25 06:31:57;;;;;;;12.27;3.53;;;;;;;;;;5092544;28;20285;-74
2022/06/25 06:34:24;;;;;;;16.50;4.10;;;;;;;;;;5075277;28;20231;-74
2022/06/25 06:36:51;;;;;;;17.07;3.50;;;;;;;;;;5052029;28;20235;-74
2022/06/25 06:39:19;;;;;;;10.60;3.03;;;;;;;;;;5052146;28;20670;-74
2022/06/25 06:41:47;;;;;;;12.20;3.37;;;;;;;;;;5051904;28;20254;-74
2022/06/25 06:44:14;;;;;;;11.37;3.20;;;;;;;;;;5052253;28;20578;-74
2022/06/25 06:46:43;;;;;;;13.37;3.43;;;;;;;;;;5052328;28;20293;-74
2022/06/25 06:49:10;;;;;;;16.67;3.70;;;;;;;;;;5066170;28;20314;-74
2022/06/25 06:51:37;;;;;;;15.50;3.67;;;;;;;;;;5070937;28;20716;-74
2022/06/25 06:54:04;;;;;;;19.30;3.87;;;;;;;;;;5072778;28;20227;-74
2022/06/25 06:56:31;;;;;;;9.97;3.20;;;;;;;;;;5083712;28;20644;-74
2022/06/25 06:59:00;;;;;;;13.60;3.40;;;;;;;;;;5066209;28;20262;-74
2022/06/25 07:01:28;;;;;;;11.70;3.30;;;;;;;;;;5072094;28;20226;-74
2022/06/25 07:03:55;;;;;;;12.83;3.07;;;;;;;;;;5073749;28;20199;-74
2022/06/25 07:06:22;;;;;;;12.07;3.73;;;;;;;;;;5070839;28;20290;-74
2022/06/25 07:08:49;;;;;;;13.13;3.07;;;;;;;;;;5065718;28;20245;-74
2022/06/25 07:11:29;;;;;;;11.13;2.70;;;;;;;;;;5075180;28;20229;-74
2022/06/25 07:13:56;;;;;;;10.67;2.77;;;;;;;;;;5091680;28;20241;-74
2022/06/25 07:16:25;;;;;;;10.43;2.93;;;;;;;;;;5072319;28;20301;-74
2022/06/25 07:18:53;;;;;;;15.90;2.97;;;;;;;;;;5071666;28;20607;-74
2022/06/25 07:21:20;;;;;;;13.00;3.17;;;;;;;;;;5077213;28;20197;-75
2022/06/25 07:23:47;;;;;;;15.40;2.50;;;;;;;;;;5073914;28;20286;-75
2022/06/25 07:26:14;;;;;;;11.30;2.90;;;;;;;;;;5058255;28;20231;-76
2022/06/25 07:28:41;;;;;;;16.23;2.57;;;;;;;;;;5067916;28;20238;-75
2022/06/25 07:31:09;;;;;;;20.50;3.90;;;;;;;;;;5074621;28;20306;-75
2022/06/25 07:33:37;;;;;;;11.20;2.50;;;;;;;;;;5077377;28;20290;-76
2022/06/25 07:36:05;;;;;;;14.10;3.37;;;;;;;;;;5075844;28;20294;-76
2022/06/25 07:38:33;;;;;;;16.17;3.07;;;;;;;;;;5075376;28;20282;-75
2022/06/25 07:41:00;;;;;;;13.03;2.97;;;;;;;;;;5076225;28;20199;-76
2022/06/25 07:43:28;;;;;;;10.00;2.60;;;;;;;;;;5075874;28;20289;-76
2022/06/25 07:45:55;;;;;;;10.53;2.20;;;;;;;;;;5070943;28;20717;-76
2022/06/25 07:48:23;;;;;;;9.13;2.33;;;;;;;;;;5058678;28;20203;-76
2022/06/25 07:53:36;;;;;;;10.53;2.90;;;;;;;;;;5070055;28;20214;-76
2022/06/25 07:56:03;;;;;;;8.13;2.33;;;;;;;;;;5056566;28;20303;-76
2022/06/25 07:58:31;;;;;;;10.77;2.50;;;;;;;;;;5057659;28;20232;-76
2022/06/25 08:00:58;;;;;;;12.13;2.30;;;;;;;;;;5064745;28;20274;-77
2022/06/25 08:03:25;;;;;;;10.30;2.42;;;;;;;;;;5065084;28;20238;-77
2022/06/25 08:05:54;;;;;;;9.15;2.55;;;;;;;;;;5066335;28;20200;-76
2022/06/25 08:08:21;;;;;;;9.15;2.25;;;;;;;;;;5072220;28;20198;-76
2022/06/25 08:10:48;;;;;;;12.73;2.08;;;;;;;;;;5055728;28;20258;-77
2022/06/25 08:13:16;;;;;;;8.98;2.28;;;;;;;;;;5062292;28;20231;-77
2022/06/25 08:15:43;;;;;;;8.52;2.13;;;;;;;;;;5070254;28;20231;-77
2022/06/25 08:18:10;;;;;;;12.60;2.08;;;;;;;;;;5073626;28;20285;-77
2022/06/25 08:20:37;;;;;;;9.48;2.45;;;;;;;;;;5072489;28;20238;-77
2022/06/25 08:23:06;;;;;;;10.85;2.55;;;;;;;;;;5065143;28;20207;-77
2022/06/25 08:25:33;;;;;;;8.27;2.17;;;;;;;;;;5065494;28;20241;-78
2022/06/25 08:28:00;;;;;;;8.90;1.73;;;;;;;;;;5063421;28;20663;-78
2022/06/25 08:30:27;;;;;;;9.48;2.15;;;;;;;;;;5061048;28;20301;-78
2022/06/25 08:32:56;;;;;;;10.90;2.30;;;;;;;;;;5089061;28;20222;-78
2022/06/25 08:35:23;;;;;;;10.05;2.10;;;;;;;;;;5071225;28;20199;-77
2022/06/25 08:37:51;;;;;;;11.13;2.15;;;;;;;;;;5089078;28;20657;-78
2022/06/25 08:40:21;;;;;;;11.45;2.20;;;;;;;;;;5078912;28;20203;-76
2022/06/25 08:42:48;;;;;;;7.95;2.15;;;;;;;;;;5072634;28;20245;-77
2022/06/25 08:45:17;;;;;;;6.03;1.60;;;;;;;;;;5069114;28;20226;-76
2022/06/25 08:47:45;;;;;;;10.30;2.03;;;;;;;;;;5070721;28;20196;-76
2022/06/25 08:50:14;;;;;;;9.10;2.22;;;;;;;;;;5058306;28;20236;-76
2022/06/25 08:52:43;;;;;;;10.10;2.13;;;;;;;;;;5067283;28;20256;-77
2022/06/25 08:55:11;;;;;;;8.80;2.25;;;;;;;;;;5074554;28;20230;-77
2022/06/25 08:57:41;;;;;;;6.38;1.70;;;;;;;;;;5074333;28;20203;-77
2022/06/25 09:00:09;;;;;;;9.38;2.08;;;;;;;;;;5073152;28;20617;-77
2022/06/25 09:02:39;;;;;;;10.07;2.50;;;;;;;;;;5075693;28;20198;-77
2022/06/25 09:05:07;;;;;;;6.30;1.67;;;;;;;;;;5071076;28;20191;-76
2022/06/25 09:07:34;;;;;;;6.50;2.00;;;;;;;;;;5064305;28;20194;-76
2022/06/25 09:10:01;;;;;;;5.55;1.88;;;;;;;;;;5059963;28;20257;-76
2022/06/25 09:12:29;;;;;;;9.35;1.67;;;;;;;;;;5068155;28;20200;-77
2022/06/25 09:14:57;;;;;;;8.05;2.00;;;;;;;;;;5053926;28;20290;-79
2022/06/25 09:17:26;;;;;;;6.35;1.50;;;;;;;;;;5060850;28;20282;-77
2022/06/25 09:19:57;;;;;;;6.05;1.83;;;;;;;;;;5057479;28;20215;-78
2022/06/25 09:22:26;;;;;;;6.65;2.00;;;;;;;;;;5054266;28;21894;-77
2022/06/25 09:24:55;;;;;;;7.82;2.00;;;;;;;;;;5060710;28;20761;-77
2022/06/25 09:27:22;;;;;;;11.43;2.22;;;;;;;;;;5062721;28;20200;-77
2022/06/25 09:29:50;;;;;;;8.43;2.10;;;;;;;;;;5063358;28;20199;-77
2022/06/25 09:32:19;;;;;;;9.60;1.90;;;;;;;;;;5080124;28;20233;-77
2022/06/25 09:34:46;;;;;;;5.60;1.98;;;;;;;;;;5058661;28;20290;-76
2022/06/25 09:37:21;;;;;;;6.45;2.17;;;;;;;;;;5080388;28;20198;-76
2022/06/25 09:39:49;;;;;;;7.85;1.90;;;;;;;;;;5065843;28;20222;-76
2022/06/25 09:42:38;;;;;;;7.75;2.65;;;;;;;;;;5073001;28;20740;-76
2022/06/25 09:45:13;;;;;;;9.68;4.38;;;;;;;;;;5066544;28;20198;-76
2022/06/25 09:47:43;;;;;;;6.13;2.05;;;;;;;;;;5059698;28;20335;-77
2022/06/25 09:50:14;;;;;;;10.63;4.30;;;;;;;;;;5067083;28;20249;-77
2022/06/25 09:52:50;;;;;;;5.10;1.83;;;;;;;;;;5068848;28;20286;-76
2022/06/25 09:55:18;;;;;;;10.93;3.27;;;;;;;;;;5064650;28;20210;-76
2022/06/25 09:57:45;;;;;;;15.57;8.38;;;;;;;;;;5070960;28;20234;-77
2022/06/25 10:00:14;;;;;;;10.65;3.58;;;;;;;;;;5071839;28;20210;-77
2022/06/25 10:02:43;;;;;;;8.97;3.50;;;;;;;;;;5069258;28;20200;-78
2022/06/25 10:05:11;;;;;;;10.77;3.13;;;;;;;;;;5053412;28;20279;-78
2022/06/25 10:10:24;;;;;;;10.90;2.20;;;;;;;;;;5060381;28;20301;-77
2022/06/25 10:12:52;;;;;;;6.53;2.10;;;;;;;;;;5058949;28;20231;-78
2022/06/25 10:15:20;;;;;;;9.07;2.47;;;;;;;;;;5072480;28;20196;-78
2022/06/25 10:17:49;;;;;;;4.72;2.13;;;;;;;;;;5061635;28;20211;-77
2022/06/25 10:20:17;;;;;;;8.03;2.10;;;;;;;;;;5062925;28;20215;-77
2022/06/25 10:22:45;;;;;;;8.13;2.70;;;;;;;;;;5065393;28;20203;-78
2022/06/25 10:25:13;;;;;;;7.67;2.50;;;;;;;;;;5069526;28;20234;-76
2022/06/25 10:27:41;;;;;;;7.37;2.47;;;;;;;;;;5065904;28;20199;-78
2022/06/25 10:30:08;;;;;;;5.33;2.13;;;;;;;;;;5068301;28;20226;-79
2022/06/25 10:32:43;;;;;;;6.90;2.50;;;;;;;;;;5064254;28;20237;-79
2022/06/25 10:35:12;;;;;;;7.37;2.47;;;;;;;;;;5069993;28;20267;-78
2022/06/25 10:37:57;;;;;;;7.13;2.40;;;;;;;;;;5069081;28;20713;-79
2022/06/25 10:40:24;;;;;;;8.07;2.43;;;;;;;;;;5065814;28;20253;-79
2022/06/25 10:43:01;;;;;;;8.40;2.42;;;;;;;;;;5066552;28;20290;-78
2022/06/25 10:45:45;;;;;;;6.95;2.28;;;;;;;;;;5069765;28;20289;-78
2022/06/25 10:48:13;;;;;;;5.47;2.38;;;;;;;;;;5067155;28;20739;-78
2022/06/25 10:50:49;;;;;;;6.25;1.80;;;;;;;;;;5064721;28;20226;-78
2022/06/25 10:53:26;;;;;;;7.55;2.13;;;;;;;;;;5067157;28;20198;-78
2022/06/25 10:56:23;;;;;;;11.98;5.72;;;;;;;;;;5068874;28;20630;-78
2022/06/25 10:58:51;;;;;;;35.85;21.60;;;;;;;;;;5067808;28;20294;-78
2022/06/25 11:01:23;;;;;;;6.25;2.20;;;;;;;;;;5070438;28;20191;-78
2022/06/25 11:03:54;;;;;;;4.38;1.95;;;;;;;;;;5066764;28;20227;-78
2022/06/25 11:06:24;;;;;;;5.57;1.92;;;;;;;;;;5069915;28;20230;-78
2022/06/25 11:08:52;;;;;;;4.30;1.70;;;;;;;;;;5071284;28;20237;-78
2022/06/25 11:11:26;;;;;;;4.45;1.50;;;;;;;;;;5068006;28;20272;-79
2022/06/25 11:13:54;;;;;;;3.15;1.33;;;;;;;;;;5053712;28;20736;-79
2022/06/25 11:16:22;;;;;;;5.78;1.65;;;;;;;;;;5071400;28;20325;-78
2022/06/25 11:18:50;;;;;;;6.60;1.92;;;;;;;;;;5073726;28;20198;-79
2022/06/25 11:21:29;;;;;;;3.17;1.70;;;;;;;;;;5078294;28;20289;-78
2022/06/25 11:24:06;;;;;;;5.65;1.90;;;;;;;;;;5083807;28;20203;-79
2022/06/25 11:29:19;;;;;;;5.10;1.65;;;;;;;;;;5072288;28;20371;-80
2022/06/25 11:31:47;;;;;;;5.50;2.45;;;;;;;;;;5065882;28;20262;-80
2022/06/25 11:34:18;;;;;;;5.15;1.88;;;;;;;;;;5066182;28;20214;-80
2022/06/25 11:36:46;;;;;;;6.43;2.10;;;;;;;;;;5068819;28;20203;-80
2022/06/25 11:39:16;;;;;;;4.68;2.00;;;;;;;;;;5067125;28;20607;-80
2022/06/25 11:41:50;;;;;;;6.47;2.13;;;;;;;;;;5060978;28;20195;-79
2022/06/25 11:44:17;;;;;;;5.97;2.00;;;;;;;;;;5070032;28;20203;-79
2022/06/25 11:46:45;;;;;;;6.72;2.10;;;;;;;;;;5071998;28;20199;-80
2022/06/25 11:49:13;;;;;;;5.05;1.92;;;;;;;;;;5071754;28;20195;-79
2022/06/25 11:51:45;;;;;;;4.85;2.17;;;;;;;;;;5070586;28;20231;-80
2022/06/25 11:54:14;;;;;;;4.30;1.80;;;;;;;;;;5071145;28;20203;-80
2022/06/25 11:56:47;;;;;;;7.15;2.13;;;;;;;;;;5070912;28;20286;-79
2022/06/25 11:59:15;;;;;;;6.35;2.33;;;;;;;;;;5064342;28;20670;-79
2022/06/25 12:01:44;;;;;;;5.47;2.30;;;;;;;;;;5066094;28;20208;-79
2022/06/25 12:04:11;;;;;;;7.65;2.17;;;;;;;;;;5066337;28;20290;-78
2022/06/25 12:06:38;;;;;;;5.95;2.22;;;;;;;;;;5059600;28;20195;-77
2022/06/25 12:09:06;;;;;;;6.25;2.80;;;;;;;;;;5063261;28;20222;-77
2022/06/25 12:11:34;;;;;;;4.20;2.08;;;;;;;;;;5055902;28;20277;-79
2022/06/25 12:14:03;;;;;;;7.55;2.42;;;;;;;;;;5070325;28;20678;-79
2022/06/25 12:16:41;;;;;;;5.05;2.33;;;;;;;;;;5068630;28;20203;-79
2022/06/25 12:19:11;;;;;;;9.18;2.58;;;;;;;;;;5062168;28;20226;-80
2022/06/25 12:21:39;;;;;;;4.45;1.90;;;;;;;;;;5066904;28;20222;-79
2022/06/25 12:24:07;;;;;;;3.78;1.70;;;;;;;;;;5066638;28;20281;-79
2022/06/25 12:26:36;;;;;;;2.83;1.63;;;;;;;;;;5074821;28;20198;-79
2022/06/25 12:29:07;;;;;;;7.28;2.13;;;;;;;;;;5062410;28;20291;-79
2022/06/25 12:31:34;;;;;;;4.63;1.87;;;;;;;;;;5061518;28;20666;-79
2022/06/25 12:34:02;;;;;;;4.33;1.90;;;;;;;;;;5064285;28;20275;-79
2022/06/25 12:36:30;;;;;;;5.13;1.63;;;;;;;;;;5065199;28;20195;-79
2022/06/25 12:38:57;;;;;;;5.07;1.67;;;;;;;;;;5062586;28;20219;-79
2022/06/25 12:41:39;;;;;;;5.47;1.70;;;;;;;;;;5081268;28;20282;-79
2022/06/25 12:44:13;;;;;;;3.03;1.50;;;;;;;;;;5062718;28;20279;-79
2022/06/25 12:46:40;;;;;;;3.13;1.50;;;;;;;;;;5065804;28;20707;-79
2022/06/25 12:49:08;;;;;;;3.73;1.30;;;;;;;;;;5062609;28;20285;-79
2022/06/25 12:51:35;;;;;;;2.83;1.20;;;;;;;;;;5058343;28;20313;-79
2022/06/25 12:54:02;;;;;;;2.60;1.30;;;;;;;;;;5066590;28;20282;-79
2022/06/25 12:56:29;;;;;;;3.35;1.33;;;;;;;;;;5072310;28;20289;-79
2022/06/25 12:59:15;;;;;;;3.03;1.27;;;;;;;;;;5060602;28;20624;-79
2022/06/25 13:01:44;;;;;;;4.85;1.50;;;;;;;;;;5061891;28;20203;-79
2022/06/25 13:04:11;;;;;;;3.17;1.38;;;;;;;;;;5073439;28;20294;-78
2022/06/25 13:06:38;;;;;;;4.13;1.60;;;;;;;;;;5058169;28;20223;-79
2022/06/25 13:09:06;;;;;;;4.65;1.70;;;;;;;;;;5087832;28;20675;-79
2022/06/25 13:11:33;;;;;;;4.45;1.75;;;;;;;;;;5064226;28;20247;-79
2022/06/25 13:14:01;;;;;;;4.78;1.58;;;;;;;;;;5067229;28;20272;-78
2022/06/25 13:16:28;;;;;;;3.50;1.58;;;;;;;;;;5065484;28;20286;-79
2022/06/25 13:18:58;;;;;;;7.63;1.75;;;;;;;;;;5060466;28;20274;-79
2022/06/25 13:21:25;;;;;;;4.60;1.73;;;;;;;;;;5064941;28;20287;-79
2022/06/25 13:23:52;;;;;;;3.28;1.90;;;;;;;;;;5061723;28;20199;-79
2022/06/25 13:26:20;;;;;;;6.28;2.15;;;;;;;;;;5063783;28;20234;-80
2022/06/25 13:28:47;;;;;;;5.70;2.00;;;;;;;;;;5067612;28;20277;-80
2022/06/25 13:31:14;;;;;;;2.92;1.63;;;;;;;;;;5064986;28;20299;-80
2022/06/25 13:33:42;;;;;;;4.70;1.88;;;;;;;;;;5054696;28;20199;-79
2022/06/25 13:36:11;;;;;;;4.45;2.00;;;;;;;;;;5058660;28;20204;-80
2022/06/25 13:38:38;;;;;;;4.22;1.38;;;;;;;;;;5069751;28;20268;-79
2022/06/25 13:41:06;;;;;;;3.92;1.90;;;;;;;;;;5066903;28;20207;-79
2022/06/25 13:43:33;;;;;;;5.50;1.75;;;;;;;;;;5067524;28;20562;-79
2022/06/25 13:46:00;;;;;;;6.30;1.63;;;;;;;;;;5062106;28;20195;-79
2022/06/25 13:48:28;;;;;;;3.63;1.73;;;;;;;;;;5061807;28;20227;-80
2022/06/25 13:50:55;;;;;;;5.13;1.77;;;;;;;;;;5061801;28;20254;-79
2022/06/25 13:53:23;;;;;;;5.60;2.22;;;;;;;;;;5058168;28;20231;-80
2022/06/25 13:55:51;;;;;;;5.38;1.90;;;;;;;;;;5061003;28;20710;-80
2022/06/25 13:58:18;;;;;;;4.53;1.75;;;;;;;;;;5062453;28;20269;-80
2022/06/25 14:00:45;;;;;;;5.63;1.73;;;;;;;;;;5068996;28;20227;-80
2022/06/25 14:03:13;;;;;;;4.40;1.80;;;;;;;;;;5065592;28;20235;-80
2022/06/25 14:05:40;;;;;;;4.82;1.90;;;;;;;;;;5063810;28;20281;-80
2022/06/25 14:08:07;;;;;;;7.68;2.05;;;;;;;;;;5059764;28;20240;-80
2022/06/25 14:10:36;;;;;;;7.50;2.33;;;;;;;;;;5064836;28;20690;-80
2022/06/25 14:13:03;;;;;;;5.63;2.10;;;;;;;;;;5070199;28;20710;-79
2022/06/25 14:15:30;;;;;;;5.05;2.25;;;;;;;;;;5062762;28;20649;-79
2022/06/25 14:17:57;;;;;;;7.72;2.10;;;;;;;;;;5061155;28;20644;-79
2022/06/25 14:20:24;;;;;;;5.88;2.22;;;;;;;;;;5059413;28;20282;-80
2022/06/25 14:22:52;;;;;;;7.90;1.90;;;;;;;;;;5071970;28;20230;-79
2022/06/25 14:25:24;;;;;;;6.90;2.13;;;;;;;;;;5066047;28;20682;-79
2022/06/25 14:27:53;;;;;;;6.18;2.10;;;;;;;;;;5060576;28;20570;-79
2022/06/25 14:30:20;;;;;;;6.30;2.20;;;;;;;;;;5063133;28;20256;-80
2022/06/25 14:32:48;;;;;;;6.03;2.10;;;;;;;;;;5073187;28;20247;-79
2022/06/25 14:35:15;;;;;;;7.80;1.90;;;;;;;;;;5052479;28;20243;-79
2022/06/25 14:43:14;;;;;;;5.07;2.00;;;;;;;;;;5071626;28;20261;-80
2022/06/25 14:45:42;;;;;;;4.95;2.08;;;;;;;;;;5076398;28;20198;-80
2022/06/25 14:48:11;;;;;;;5.30;1.77;;;;;;;;;;5078768;28;20561;-79
2022/06/25 14:50:38;;;;;;;4.15;1.52;;;;;;;;;;5079460;28;20258;-79
2022/06/25 14:53:06;;;;;;;5.00;1.52;;;;;;;;;;5055971;28;20321;-79
2022/06/25 14:55:33;;;;;;;4.47;1.80;;;;;;;;;;5061441;28;20225;-79
2022/06/25 14:58:00;;;;;;;4.68;1.83;;;;;;;;;;5071770;28;20636;-79
2022/06/25 15:00:29;;;;;;;2.30;1.17;;;;;;;;;;5072601;28;20624;-81
2022/06/25 15:02:56;;;;;;;5.25;1.70;;;;;;;;;;5062383;28;20278;-79
2022/06/25 15:05:25;;;;;;;3.65;1.30;;;;;;;;;;5061706;28;20202;-79
2022/06/25 15:07:53;;;;;;;3.42;1.80;;;;;;;;;;5061987;28;20578;-79